AICD5V VISR-VABB
Flight info
| Callsign | AICD5V |
|---|---|
| Flight time | N/A |
| Altitude | 38000 |
| Route | SGR DCT PANLA W23 BIKUX W21 KIKED W23 ASARI Z1 QQZ/N0444F370 W77 SG/N0445F380 A474 AKTIV IGBAN2A |
| Aircraft | A21N/M-SDE2E3FGHIRWXY/LB1 |
Departure
| Time | 2026-05-05 09:06 |
|---|---|
| Airport | Sheikh ul Alam International Airport (VISR) |
Arrival
| Time | N/A |
|---|---|
| Airport | Chhatrapati Shivaji Maharaj International Airport (VABB) |
| Time | Latitude | Longitude | Altitude | Speed | Heading |
|---|---|---|---|---|---|
| 2026-05-05 08:40 | 34.00111 | 74.76156 | 5448 ft | 0 kts | 30° |
| 2026-05-05 08:44 | 34.00112 | 74.76156 | 5448 ft | 0 kts | 30° |
| 2026-05-05 08:44 | 34.00112 | 74.76157 | 5448 ft | 0 kts | 30° |
| 2026-05-05 08:56 | 34.00106 | 74.76151 | 5448 ft | 2 kts | 37° |
| 2026-05-05 08:56 | 34.00093 | 74.76141 | 5448 ft | 2 kts | 34° |
| 2026-05-05 08:56 | 34.00080 | 74.76130 | 5448 ft | 2 kts | 34° |
| 2026-05-05 08:57 | 34.00067 | 74.76119 | 5448 ft | 2 kts | 34° |
| 2026-05-05 08:57 | 34.00055 | 74.76107 | 5448 ft | 2 kts | 51° |
| 2026-05-05 08:57 | 34.00050 | 74.76094 | 5448 ft | 2 kts | 98° |
| 2026-05-05 08:57 | 34.00055 | 74.76080 | 5448 ft | 2 kts | 115° |
| 2026-05-05 08:58 | 34.00060 | 74.76069 | 5448 ft | 0 kts | 115° |
| 2026-05-05 09:01 | 34.00059 | 74.76070 | 5448 ft | 0 kts | 115° |
| 2026-05-05 09:02 | 34.00056 | 74.76078 | 5448 ft | 2 kts | 115° |
| 2026-05-05 09:02 | 34.00049 | 74.76097 | 5448 ft | 3 kts | 114° |
| 2026-05-05 09:02 | 34.00038 | 74.76126 | 5448 ft | 4 kts | 114° |
| 2026-05-05 09:02 | 34.00021 | 74.76164 | 5448 ft | 6 kts | 129° |
| 2026-05-05 09:03 | 33.99985 | 74.76182 | 5448 ft | 6 kts | 180° |
| 2026-05-05 09:03 | 33.99939 | 74.76174 | 5448 ft | 7 kts | 191° |
| 2026-05-05 09:03 | 33.99901 | 74.76164 | 5448 ft | 0 kts | 192° |
| 2026-05-05 09:03 | 33.99896 | 74.76163 | 5448 ft | 1 kts | 192° |
| 2026-05-05 09:04 | 33.99892 | 74.76162 | 5448 ft | 0 kts | 192° |
| 2026-05-05 09:04 | 33.99890 | 74.76161 | 5448 ft | 0 kts | 192° |
| 2026-05-05 09:04 | 33.99887 | 74.76160 | 5448 ft | 2 kts | 192° |
| 2026-05-05 09:04 | 33.99834 | 74.76146 | 5448 ft | 15 kts | 191° |
| 2026-05-05 09:05 | 33.99758 | 74.76179 | 5448 ft | 8 kts | 139° |
| 2026-05-05 09:05 | 33.99746 | 74.76192 | 5448 ft | 0 kts | 136° |
| 2026-05-05 09:05 | 33.99743 | 74.76196 | 5448 ft | 0 kts | 136° |
| 2026-05-05 09:05 | 33.99614 | 74.76369 | 5448 ft | 68 kts | 132° |
| 2026-05-05 09:06 | 33.99072 | 74.76976 | 5448 ft | 143 kts | 136° |
| 2026-05-05 09:06 | 33.98212 | 74.77990 | 5448 ft | 196 kts | 137° |
| 2026-05-05 09:06 | 33.97246 | 74.79205 | 5766 ft | 204 kts | 132° |
| 2026-05-05 09:06 | 33.96286 | 74.80446 | 6449 ft | 202 kts | 133° |
| 2026-05-05 09:07 | 33.95251 | 74.81566 | 7318 ft | 198 kts | 142° |
| 2026-05-05 09:07 | 33.93985 | 74.82152 | 8036 ft | 200 kts | 173° |
| 2026-05-05 09:07 | 33.92669 | 74.81733 | 8794 ft | 199 kts | 206° |
| 2026-05-05 09:07 | 33.91622 | 74.80666 | 9919 ft | 191 kts | 224° |
| 2026-05-05 09:08 | 33.91255 | 74.80115 | 10419 ft | 192 kts | 233° |
| 2026-05-05 09:08 | 33.91029 | 74.79553 | 10744 ft | 196 kts | 246° |
| 2026-05-05 09:08 | 33.90953 | 74.77888 | 11541 ft | 205 kts | 275° |
| 2026-05-05 09:09 | 33.91255 | 74.76162 | 12337 ft | 217 kts | 284° |
| 2026-05-05 09:09 | 33.91918 | 74.74483 | 13082 ft | 229 kts | 304° |
| 2026-05-05 09:09 | 33.93011 | 74.73043 | 13870 ft | 239 kts | 314° |
| 2026-05-05 09:09 | 33.94245 | 74.71630 | 14639 ft | 249 kts | 316° |
| 2026-05-05 09:10 | 33.95562 | 74.70160 | 15409 ft | 261 kts | 317° |
| 2026-05-05 09:10 | 33.97109 | 74.68982 | 16137 ft | 271 kts | 338° |
| 2026-05-05 09:10 | 33.98925 | 74.68678 | 16869 ft | 280 kts | 1° |
| 2026-05-05 09:20 | 34.00062 | 74.68939 | 17315 ft | 285 kts | 16° |
| 2026-05-05 09:20 | 34.01771 | 74.70174 | 18075 ft | 291 kts | 41° |
| 2026-05-05 09:20 | 34.02966 | 74.72148 | 18835 ft | 296 kts | 63° |
| 2026-05-05 09:20 | 34.03511 | 74.74561 | 19606 ft | 300 kts | 81° |
| 2026-05-05 09:21 | 34.03363 | 74.77058 | 20365 ft | 302 kts | 105° |
| 2026-05-05 09:21 | 34.02364 | 74.79274 | 21223 ft | 302 kts | 129° |
| 2026-05-05 09:21 | 34.00723 | 74.80783 | 22088 ft | 301 kts | 153° |
| 2026-05-05 09:21 | 33.98713 | 74.81358 | 22966 ft | 297 kts | 176° |
| 2026-05-05 09:22 | 33.96664 | 74.81215 | 23860 ft | 292 kts | 186° |
| 2026-05-05 09:22 | 33.94677 | 74.80831 | 24721 ft | 286 kts | 189° |
| 2026-05-05 09:22 | 33.92716 | 74.80426 | 25417 ft | 286 kts | 188° |
| 2026-05-05 09:22 | 33.90743 | 74.80134 | 26058 ft | 285 kts | 185° |
| 2026-05-05 09:23 | 33.88761 | 74.79995 | 26688 ft | 284 kts | 181° |
| 2026-05-05 09:23 | 33.86787 | 74.80002 | 27316 ft | 282 kts | 178° |
| 2026-05-05 09:23 | 33.84862 | 74.80123 | 27933 ft | 279 kts | 175° |
| 2026-05-05 09:23 | 33.82952 | 74.80333 | 28553 ft | 274 kts | 173° |
| 2026-05-05 09:24 | 33.81078 | 74.80606 | 29171 ft | 267 kts | 172° |
| 2026-05-05 09:24 | 33.79248 | 74.80920 | 29687 ft | 264 kts | 171° |
| 2026-05-05 09:24 | 33.77433 | 74.81267 | 30149 ft | 262 kts | 170° |
| 2026-05-05 09:24 | 33.75642 | 74.81635 | 30593 ft | 259 kts | 169° |
| 2026-05-05 09:25 | 33.73899 | 74.82012 | 30980 ft | 257 kts | 169° |
| 2026-05-05 09:25 | 33.73134 | 74.82182 | 31145 ft | 256 kts | 169° |
| 2026-05-05 09:25 | 33.71378 | 74.82580 | 31520 ft | 254 kts | 168° |
| 2026-05-05 09:25 | 33.69646 | 74.82979 | 31891 ft | 251 kts | 168° |
| 2026-05-05 09:26 | 33.67946 | 74.83376 | 32258 ft | 247 kts | 168° |
| 2026-05-05 09:26 | 33.66222 | 74.83783 | 32339 ft | 257 kts | 168° |
| 2026-05-05 09:26 | 33.64424 | 74.84210 | 32363 ft | 269 kts | 168° |
| 2026-05-05 09:26 | 33.62546 | 74.84658 | 32397 ft | 281 kts | 168° |
| 2026-05-05 09:27 | 33.60587 | 74.85127 | 32432 ft | 293 kts | 168° |
| 2026-05-05 09:27 | 33.58569 | 74.85609 | 32466 ft | 306 kts | 168° |
| 2026-05-05 09:27 | 33.56434 | 74.86120 | 32500 ft | 319 kts | 168° |
| 2026-05-05 09:27 | 33.54214 | 74.86651 | 32533 ft | 332 kts | 168° |
| 2026-05-05 09:28 | 33.53579 | 74.86803 | 32542 ft | 336 kts | 168° |
| 2026-05-05 09:28 | 33.51512 | 74.87297 | 32570 ft | 349 kts | 168° |
| 2026-05-05 09:28 | 33.49082 | 74.87878 | 32602 ft | 364 kts | 168° |
| 2026-05-05 09:28 | 33.47269 | 74.88310 | 32625 ft | 375 kts | 168° |
| 2026-05-05 09:29 | 33.46817 | 74.88418 | 32630 ft | 378 kts | 168° |
| 2026-05-05 09:29 | 33.42663 | 74.89409 | 32677 ft | 398 kts | 168° |
| 2026-05-05 09:30 | 33.37187 | 74.90964 | 32769 ft | 408 kts | 160° |
| 2026-05-05 09:30 | 33.34621 | 74.92233 | 33357 ft | 404 kts | 155° |
| 2026-05-05 09:30 | 33.32092 | 74.93750 | 33733 ft | 411 kts | 152° |
| 2026-05-05 09:30 | 33.29583 | 74.95446 | 34127 ft | 415 kts | 149° |
| 2026-05-05 09:31 | 33.27111 | 74.97244 | 34611 ft | 418 kts | 148° |
| 2026-05-05 09:31 | 33.24652 | 74.99109 | 35108 ft | 421 kts | 147° |
| 2026-05-05 09:31 | 33.22179 | 75.01025 | 35616 ft | 422 kts | 147° |
| 2026-05-05 09:31 | 33.20552 | 75.02297 | 35970 ft | 423 kts | 146° |
| 2026-05-05 09:32 | 33.17253 | 75.04871 | 36703 ft | 422 kts | 147° |
| 2026-05-05 09:32 | 33.14781 | 75.06775 | 37253 ft | 421 kts | 147° |
| 2026-05-05 09:32 | 33.12341 | 75.08640 | 37795 ft | 419 kts | 147° |
| 2026-05-05 09:32 | 33.09856 | 75.10530 | 37954 ft | 428 kts | 147° |
| 2026-05-05 09:33 | 33.07314 | 75.12459 | 37997 ft | 439 kts | 147° |
| 2026-05-05 09:33 | 33.04692 | 75.14443 | 37945 ft | 452 kts | 147° |
| 2026-05-05 09:33 | 33.01989 | 75.16486 | 37912 ft | 463 kts | 147° |
| 2026-05-05 09:33 | 32.99241 | 75.18563 | 37906 ft | 474 kts | 147° |
| 2026-05-05 09:34 | 32.96415 | 75.20699 | 37905 ft | 486 kts | 149° |
| 2026-05-05 09:34 | 32.92699 | 75.23507 | 37889 ft | 475 kts | 151° |
| 2026-05-05 09:35 | 32.90047 | 75.25513 | 37900 ft | 470 kts | 151° |
| 2026-05-05 09:35 | 32.84391 | 75.29759 | 37907 ft | 491 kts | 152° |
| 2026-05-05 09:35 | 32.81472 | 75.31944 | 37906 ft | 496 kts | 151° |
| 2026-05-05 09:36 | 32.75618 | 75.36326 | 37905 ft | 503 kts | 151° |
| 2026-05-05 09:36 | 32.69698 | 75.40758 | 37904 ft | 500 kts | 153° |
| 2026-05-05 09:37 | 32.63831 | 75.45133 | 37903 ft | 493 kts | 153° |
| 2026-05-05 09:37 | 32.58039 | 75.49237 | 37905 ft | 482 kts | 159° |
| 2026-05-05 09:38 | 32.52977 | 75.51860 | 37906 ft | 474 kts | 166° |
| 2026-05-05 09:38 | 32.45548 | 75.53846 | 37906 ft | 470 kts | 180° |
| 2026-05-05 09:39 | 32.41940 | 75.53999 | 37904 ft | 469 kts | 189° |
| 2026-05-05 09:39 | 32.40182 | 75.53768 | 38007 ft | 467 kts | 191° |
| 2026-05-05 09:39 | 32.37987 | 75.53579 | 37976 ft | 475 kts | 188° |
| 2026-05-05 09:40 | 32.32866 | 75.53076 | 37915 ft | 480 kts | 186° |
| 2026-05-05 09:40 | 32.30510 | 75.53282 | 37902 ft | 489 kts | 175° |
| 2026-05-05 09:40 | 32.27235 | 75.54483 | 37905 ft | 500 kts | 160° |
| 2026-05-05 09:41 | 32.20724 | 75.57370 | 37908 ft | 495 kts | 172° |
| 2026-05-05 09:41 | 32.13951 | 75.58182 | 37908 ft | 486 kts | 186° |
| 2026-05-05 09:42 | 32.07259 | 75.57508 | 37907 ft | 480 kts | 194° |
| 2026-05-05 09:42 | 32.02439 | 75.56392 | 37907 ft | 477 kts | 199° |
| 2026-05-05 09:43 | 31.96054 | 75.54371 | 37907 ft | 474 kts | 202° |
| 2026-05-05 09:43 | 31.89781 | 75.52052 | 37905 ft | 473 kts | 203° |
| 2026-05-05 09:44 | 31.85706 | 75.50589 | 37904 ft | 474 kts | 202° |
| 2026-05-05 09:44 | 31.79354 | 75.48395 | 37904 ft | 476 kts | 202° |
| 2026-05-05 09:45 | 31.72994 | 75.46253 | 37904 ft | 478 kts | 202° |
| 2026-05-05 09:45 | 31.66568 | 75.44115 | 37904 ft | 481 kts | 201° |
| 2026-05-05 09:46 | 31.60111 | 75.41980 | 37904 ft | 482 kts | 201° |
| 2026-05-05 09:46 | 31.53630 | 75.39843 | 37919 ft | 483 kts | 201° |
| 2026-05-05 09:47 | 31.47189 | 75.37722 | 37933 ft | 484 kts | 201° |
| 2026-05-05 09:47 | 31.40699 | 75.35587 | 37934 ft | 484 kts | 201° |
| 2026-05-05 09:48 | 31.34232 | 75.33461 | 37934 ft | 484 kts | 201° |
| 2026-05-05 09:48 | 31.27743 | 75.31326 | 37934 ft | 488 kts | 200° |
| 2026-05-05 09:49 | 31.21164 | 75.29162 | 37934 ft | 493 kts | 200° |
| 2026-05-05 09:49 | 31.14525 | 75.26985 | 37934 ft | 496 kts | 200° |
| 2026-05-05 09:50 | 31.07910 | 75.24821 | 37930 ft | 497 kts | 200° |
| 2026-05-05 09:50 | 31.01219 | 75.22637 | 37929 ft | 498 kts | 200° |
| 2026-05-05 09:51 | 30.94338 | 75.20394 | 37929 ft | 499 kts | 200° |
| 2026-05-05 09:51 | 30.87618 | 75.18206 | 37915 ft | 501 kts | 200° |
| 2026-05-05 09:52 | 30.80881 | 75.16106 | 37911 ft | 499 kts | 200° |
| 2026-05-05 09:52 | 30.74154 | 75.14350 | 37907 ft | 495 kts | 198° |
| 2026-05-05 09:53 | 30.67426 | 75.12757 | 37904 ft | 493 kts | 198° |
| 2026-05-05 09:53 | 30.60700 | 75.11221 | 37904 ft | 491 kts | 198° |
| 2026-05-05 09:54 | 30.53982 | 75.09702 | 37905 ft | 490 kts | 198° |
| 2026-05-05 09:54 | 30.47335 | 75.08198 | 37906 ft | 490 kts | 198° |
| 2026-05-05 09:55 | 30.40631 | 75.06679 | 37908 ft | 490 kts | 198° |
| 2026-05-05 09:55 | 30.33955 | 75.05162 | 37915 ft | 490 kts | 198° |
| 2026-05-05 09:56 | 30.27246 | 75.03634 | 37914 ft | 490 kts | 198° |
| 2026-05-05 09:56 | 30.20557 | 75.02111 | 37917 ft | 490 kts | 198° |
| 2026-05-05 09:57 | 30.13846 | 75.00583 | 37918 ft | 491 kts | 198° |
| 2026-05-05 09:57 | 30.07169 | 74.99062 | 37909 ft | 492 kts | 198° |
| 2026-05-05 09:58 | 30.00462 | 74.97537 | 37909 ft | 492 kts | 198° |
| 2026-05-05 09:58 | 29.93731 | 74.96008 | 37907 ft | 492 kts | 198° |
| 2026-05-05 09:59 | 29.86998 | 74.94480 | 37904 ft | 492 kts | 198° |
| 2026-05-05 09:59 | 29.80302 | 74.92963 | 37904 ft | 492 kts | 198° |
| 2026-05-05 10:00 | 29.73568 | 74.91439 | 37904 ft | 492 kts | 198° |
| 2026-05-05 10:00 | 29.66841 | 74.89915 | 37904 ft | 492 kts | 198° |
| 2026-05-05 10:01 | 29.60157 | 74.88383 | 37904 ft | 493 kts | 198° |
| 2026-05-05 10:01 | 29.53660 | 74.86884 | 37904 ft | 493 kts | 199° |
| 2026-05-05 10:02 | 29.46887 | 74.85319 | 37905 ft | 493 kts | 199° |
| 2026-05-05 10:02 | 29.41121 | 74.83988 | 37904 ft | 493 kts | 199° |
| 2026-05-05 10:03 | 29.34259 | 74.82405 | 37904 ft | 493 kts | 199° |
| 2026-05-05 10:03 | 29.27590 | 74.80869 | 37904 ft | 493 kts | 197° |
| 2026-05-05 10:04 | 29.20848 | 74.79307 | 37904 ft | 498 kts | 195° |
| 2026-05-05 10:04 | 29.18066 | 74.78666 | 37904 ft | 500 kts | 197° |
| 2026-05-05 10:05 | 29.12474 | 74.77388 | 37905 ft | 498 kts | 198° |
| 2026-05-05 10:05 | 29.05707 | 74.75845 | 37904 ft | 494 kts | 198° |
| 2026-05-05 10:06 | 28.98939 | 74.74300 | 37904 ft | 492 kts | 198° |
| 2026-05-05 10:06 | 28.92203 | 74.72762 | 37904 ft | 492 kts | 198° |
| 2026-05-05 10:07 | 28.85425 | 74.71213 | 37904 ft | 492 kts | 198° |
| 2026-05-05 10:07 | 28.78661 | 74.69668 | 37904 ft | 492 kts | 198° |
| 2026-05-05 10:08 | 28.71966 | 74.68141 | 37904 ft | 492 kts | 198° |
| 2026-05-05 10:08 | 28.65232 | 74.66607 | 37904 ft | 493 kts | 198° |
| 2026-05-05 10:09 | 28.58498 | 74.65075 | 37904 ft | 494 kts | 198° |
| 2026-05-05 10:09 | 28.51894 | 74.63576 | 37904 ft | 494 kts | 198° |
| 2026-05-05 10:10 | 28.45022 | 74.62019 | 37904 ft | 495 kts | 198° |
| 2026-05-05 10:10 | 28.38274 | 74.60492 | 37904 ft | 495 kts | 198° |
| 2026-05-05 10:11 | 28.31644 | 74.58994 | 37904 ft | 495 kts | 198° |
| 2026-05-05 10:11 | 28.24826 | 74.57454 | 37907 ft | 495 kts | 198° |
| 2026-05-05 10:12 | 28.18056 | 74.55906 | 37908 ft | 495 kts | 198° |
| 2026-05-05 10:12 | 28.11292 | 74.54347 | 37911 ft | 495 kts | 198° |
| 2026-05-05 10:13 | 28.05461 | 74.52999 | 37919 ft | 495 kts | 198° |
| 2026-05-05 10:13 | 27.98648 | 74.51423 | 37916 ft | 495 kts | 198° |
| 2026-05-05 10:14 | 27.91913 | 74.49867 | 37918 ft | 495 kts | 198° |
| 2026-05-05 10:14 | 27.86563 | 74.48632 | 37920 ft | 496 kts | 198° |
| 2026-05-05 10:15 | 27.80258 | 74.47179 | 37919 ft | 496 kts | 198° |
| 2026-05-05 10:15 | 27.73560 | 74.45638 | 37920 ft | 496 kts | 198° |
| 2026-05-05 10:16 | 27.66803 | 74.44085 | 37919 ft | 496 kts | 198° |
| 2026-05-05 10:16 | 27.59967 | 74.42516 | 37919 ft | 496 kts | 198° |
| 2026-05-05 10:17 | 27.53111 | 74.40944 | 37920 ft | 496 kts | 198° |
| 2026-05-05 10:17 | 27.46489 | 74.39427 | 37912 ft | 496 kts | 198° |
| 2026-05-05 10:18 | 27.39702 | 74.37875 | 37905 ft | 497 kts | 198° |
| 2026-05-05 10:18 | 27.32809 | 74.36301 | 37904 ft | 497 kts | 198° |
| 2026-05-05 10:19 | 27.28853 | 74.35397 | 37904 ft | 497 kts | 196° |
| 2026-05-05 10:19 | 27.22823 | 74.34015 | 37904 ft | 502 kts | 196° |
| 2026-05-05 10:20 | 27.15738 | 74.32399 | 37904 ft | 505 kts | 196° |
| 2026-05-05 10:20 | 27.08597 | 74.30775 | 37904 ft | 507 kts | 195° |
| 2026-05-05 10:21 | 27.04272 | 74.29794 | 37904 ft | 507 kts | 195° |
| 2026-05-05 10:21 | 26.98535 | 74.28495 | 37904 ft | 508 kts | 195° |
| 2026-05-05 10:22 | 26.91533 | 74.26910 | 37904 ft | 508 kts | 195° |
| 2026-05-05 10:22 | 26.84582 | 74.25345 | 37905 ft | 506 kts | 198° |
| 2026-05-05 10:23 | 26.77755 | 74.23811 | 37904 ft | 501 kts | 198° |
| 2026-05-05 10:23 | 26.70908 | 74.22268 | 37904 ft | 498 kts | 198° |
| 2026-05-05 10:24 | 26.68159 | 74.21647 | 37904 ft | 498 kts | 199° |